• Join FlightAware (Why Join?)
  • Login
  • US Flag 
02:38AM EDT


 

Airport Tracker/Info


-or-


 

Live Flight TrackerFlight Track Log ✈ EJA929 ✈ 10-Apr-2013 ✈ KPBI - KLAS

Flight Track Log - Related Links

Times and Time Zones

All times are in EDT time to prevent confusion due to time zone crossing. See the EJA929 flight status page for this flight to view local times or setup timezone preferences in your user account.

Time Position Orientation Groundspeed Altitude Reporting Facility
EDT Latitude Longitude Course Direction KTS MPH feet Rate Location/Type
03:12PM 26.6856 -80.0142 336° Northwest 211 243 3,900  Level Miami Center
03:13PM 26.7400 -79.9969 16° North 212 244 7,100 2,220 Climbing Miami Center
03:14PM 26.8189 -80.0225 344° North 248 285 8,400 2,040 Climbing Miami Center
03:15PM 26.8356 -80.1231 281° West 234 269 11,200 2,040 Climbing Miami Center
03:16PM 26.8456 -80.2325 276° West 302 348 12,500 1,200 Climbing Miami Center
03:17PM 27.0578 -80.4205 336° Northwest  Level FlightAware Approximate
03:17PM 26.8450 -80.3467 270° West 357 411 13,700  Level Miami Center
03:18PM 26.8422 -80.4536 268° West 382 440 14,600 1,020 Climbing Miami Center
03:19PM 26.8414 -80.5747 270° West 387 445 15,800 1,260 Climbing Miami Center
03:20PM 26.8378 -80.7094 268° West 387 445 17,200 1,080 Climbing Miami Center
03:21PM 26.8372 -80.8072 270° West 387 445 18,000 960 Climbing Miami Center
03:22PM 26.8333 -80.9467 268° West 399 459 19,200 960 Climbing Miami Center
03:23PM 26.8336 -81.0842 270° West 399 459 20,000 360 Climbing Miami Center
03:24PM 26.8361 -81.2169 271° West 412 474 20,000 360 Level Miami Center
03:25PM 26.8803 -81.3442 291° West 426 490 20,800 900 Climbing Miami Center
03:26PM 26.9350 -81.4628 297° West 426 490 21,800 960 Climbing Miami Center
03:27PM 26.9875 -81.5836 296° West 432 497 22,800 960 Climbing Miami Center
03:28PM 27.0358 -81.6975 295° West 437 503 23,800 900 Climbing Miami Center
03:29PM 27.0900 -81.8211 296° West 437 503 24,700 960 Climbing Miami Center
03:30PM 27.1500 -81.9611 296° West 437 503 25,800 1,020 Climbing Miami Center
03:31PM 27.2039 -82.0897 295° West 452 520 26,800 960 Climbing Miami Center
03:32PM 27.2597 -82.2183 296° West 452 520 27,800 900 Climbing Miami Center
03:33PM 27.3075 -82.3350 295° West 459 528 28,700 960 Climbing Miami Center
03:34PM 27.3686 -82.4781 296° West 459 528 29,800 1,020 Climbing Miami Center
03:35PM 27.4117 -82.6086 290° West 453 521 30,800 960 Climbing Miami Center
03:36PM 27.4414 -82.7458 284° West 448 516 31,800 900 Climbing Miami Center
03:37PM 27.4614 -82.8686 280° West 448 516 32,700 900 Climbing Miami Center
03:38PM 27.4869 -83.0056 282° West 448 516 33,600 900 Climbing Miami Center
03:39PM 27.5106 -83.1356 282° West 443 510 34,600 960 Climbing Miami Center
03:40PM 27.5342 -83.2631 282° West 430 495 35,600 960 Climbing Miami Center
03:41PM 27.5558 -83.3858 281° West 419 482 36,600 960 Climbing Miami Center
03:42PM 27.5836 -83.5092 284° West 414 476 37,600 960 Climbing Miami Center
03:43PM 27.5989 -83.6294 278° West 400 460 38,600 960 Climbing Miami Center
03:44PM 27.6203 -83.7456 282° West 393 452 39,600 960 Climbing Miami Center
03:45PM 27.6378 -83.8614 280° West 388 447 40,600 960 Climbing Miami Center
03:46PM 27.6592 -83.9772 282° West 383 441 41,600 900 Climbing Miami Center
03:47PM 27.6786 -84.0886 281° West 375 432 42,500 660 Climbing Miami Center
03:48PM 27.6978 -84.2022 281° West 375 432 43,000 240 Climbing Miami Center
03:49PM 27.7169 -84.3158 281° West 375 432 43,000  Level Miami Center
03:50PM 27.7400 -84.4344 282° West 375 432 43,000  Level Miami Center
03:51PM 27.7608 -84.5531 281° West 381 438 43,000  Level Miami Center
03:52PM 27.7869 -84.6939 282° West 397 457 43,000  Level Jacksonville Center
03:53PM 27.8081 -84.8186 281° West 404 465 43,000  Level Jacksonville Center
03:54PM 27.8311 -84.9506 281° West 397 457 43,000  Level Jacksonville Center
03:55PM 27.8519 -85.0731 281° West 403 464 43,000  Level Jacksonville Center
03:56PM 27.8725 -85.2050 280° West 409 471 43,000  Level Jacksonville Center
03:57PM 27.9017 -85.3206 286° West 408 470 43,000  Level Jacksonville Center
03:58PM 27.9369 -85.4411 288° West 408 470 43,000  Level Jacksonville Center
03:59PM 27.9722 -85.5572 289° West 402 463 43,000  Level Jacksonville Center
04:00PM 28.0072 -85.6733 289° West 396 456 43,000  Level Jacksonville Center
04:01PM 28.0442 -85.7942 289° West 396 456 43,000  Level Jacksonville Center
04:02PM 28.0789 -85.9153 288° West 396 456 43,000  Level Jacksonville Center
04:03PM 28.1119 -86.0219 289° West 396 456 43,000  Level Jacksonville Center
04:04PM 28.1486 -86.1431 289° West 396 456 43,000  Level Jacksonville Center
04:05PM 28.1850 -86.2667 288° West 396 456 43,000  Level Jacksonville Center
04:06PM 28.2214 -86.3881 289° West 396 456 43,000  Level Jacksonville Center
04:07PM 28.2558 -86.5000 289° West 396 456 43,000  Level Jacksonville Center
04:08PM 28.2900 -86.6192 288° West 402 463 43,000  Level Jacksonville Center
04:09PM 28.3239 -86.7406 288° West 402 463 43,000  Level Jacksonville Center
04:10PM 28.3600 -86.8622 289° West 409 471 43,000  Level Jacksonville Center
04:11PM 28.3978 -86.9842 289° West 412 474 43,000  Level Jacksonville Center
04:12PM 28.4275 -87.0986 286° West 403 464 43,000  Level Jacksonville Center
04:13PM 28.4672 -87.2231 290° West 403 464 43,000  Level Jacksonville Center
04:14PM 28.5028 -87.3425 289° West 408 470 43,000  Level Jacksonville Center
04:16PM 28.5753 -87.6017 288° West 412 474 43,000  Level Houston Center
04:17PM 28.6108 -87.7244 288° West 409 471 43,000  Level Houston Center
04:18PM 28.6453 -87.8486 288° West 412 474 43,000  Level Houston Center
04:19PM 28.6803 -87.9719 288° West 411 473 43,000  Level Houston Center
04:20PM 28.7169 -88.1000 288° West 410 472 43,000  Level Houston Center
04:21PM 28.7578 -88.2492 287° West 411 473 43,000  Level Houston Center
04:22PM 28.7919 -88.3733 287° West 411 473 43,000  Level Houston Center
04:23PM 28.8272 -88.4969 288° West 410 472 43,000  Level Houston Center
04:25PM 28.8611 -88.6219 287° West 412 474 43,000  Level Houston Center
04:26PM 28.9117 -88.7378 297° West 415 478 43,000  Level Houston Center
04:27PM 29.0042 -88.8600 311° West 423 487 43,000  Level Houston Center
04:28PM 29.0806 -88.9628 310° West 424 488 43,000  Level Houston Center
04:29PM 29.1492 -89.0708 306° West 420 483 43,000  Level Houston Center
04:30PM 29.1747 -89.1981 283° West 410 472 43,000  Level Houston Center
04:31PM 29.1975 -89.3261 282° West 412 474 43,000  Level Houston Center
04:32PM 29.2200 -89.4547 281° West 411 473 43,000  Level Houston Center
04:33PM 29.2458 -89.6119 281° West 417 480 43,000  Level Houston Center
04:34PM 29.2681 -89.7406 281° West 415 478 43,000  Level Houston Center
04:35PM 29.2911 -89.8708 282° West 416 479 43,000  Level Houston Center
04:36PM 29.3128 -90.0025 281° West 419 482 43,000  Level Houston Center
04:37PM 29.3361 -90.1319 282° West 416 479 43,000  Level Houston Center
04:38PM 29.3581 -90.2650 281° West 422 486 43,000  Level Houston Center
04:39PM 29.3806 -90.3972 281° West 423 487 43,000  Level Houston Center
04:40PM 29.4058 -90.5564 280° West 423 487 43,000  Level Houston Center
04:41PM 29.4297 -90.6900 282° West 427 491 43,000  Level Houston Center
04:42PM 29.4517 -90.8217 281° West 423 487 43,000  Level Houston Center
04:43PM 29.4725 -90.9539 280° West 420 483 43,000  Level Houston Center
04:44PM 29.4944 -91.0847 281° West 419 482 43,000  Level Houston Center
04:45PM 29.5153 -91.2144 280° West 414 476 43,000  Level Houston Center
04:46PM 29.5411 -91.3717 281° West 418 481 43,000  Level Houston Center
04:47PM 29.5614 -91.5028 280° West 417 480 43,000  Level Houston Center
04:48PM 29.5822 -91.6328 280° West 416 479 43,000  Level Houston Center
04:49PM 29.6042 -91.7706 280° West 418 481 43,000  Level Houston Center
04:50PM 29.6242 -91.9014 280° West 416 479 43,000  Level Houston Center
04:51PM 29.6447 -92.0328 280° West 417 480 43,000  Level Houston Center
04:52PM 29.6644 -92.1642 280° West 419 482 43,000  Level Houston Center
04:54PM 29.6900 -92.3214 281° West 418 481 43,000  Level Houston Center
04:55PM 29.7097 -92.4544 280° West 421 484 43,000  Level Houston Center
04:56PM 29.7297 -92.5875 280° West 423 487 43,000  Level Houston Center
04:57PM 29.7500 -92.7206 280° West 423 487 43,000  Level Houston Center
04:58PM 29.7708 -92.8525 280° West 419 482 43,000  Level Houston Center
04:59PM 29.7894 -92.9867 279° West 423 487 43,000  Level Houston Center
05:00PM 29.8128 -93.1458 280° West 420 483 43,000  Level Houston Center
05:01PM 29.8319 -93.2797 279° West 422 486 43,000  Level Houston Center
05:02PM 29.8514 -93.4125 280° West 419 482 43,000  Level Houston Center
05:03PM 29.8714 -93.5472 280° West 423 487 43,000  Level Houston Center
05:04PM 29.8894 -93.6806 279° West 420 483 43,000  Level Houston Center
05:05PM 29.9089 -93.8150 280° West 423 487 43,000  Level Houston Center
05:06PM 29.9283 -93.9494 280° West 423 487 43,000  Level Houston Center
05:07PM 29.9497 -94.1100 279° West 422 486 43,000  Level Houston Center
05:08PM 29.9683 -94.2433 279° West 423 487 43,000  Level Houston Center
05:09PM 29.9872 -94.3775 279° West 424 488 43,000  Level Houston Center
05:10PM 30.0058 -94.5144 279° West 425 489 43,000  Level Houston Center
05:11PM 30.0244 -94.6483 279° West 428 493 43,000  Level Houston Center
05:12PM 30.0458 -94.8083 279° West 424 488 43,000  Level Houston Center
05:13PM 30.0675 -94.9669 279° West 421 484 43,000  Level Houston Center
05:14PM 30.0853 -95.1011 279° West 425 489 43,000  Level Houston Center
05:15PM 30.1028 -95.2358 279° West 429 494 43,000  Level Houston Center
05:16PM 30.1197 -95.3697 278° West 428 493 43,000  Level Houston Center
05:18PM 30.1403 -95.5306 278° West 424 488 43,000  Level Houston Center
05:19PM 30.1578 -95.6647 279° West 425 489 43,000  Level Houston Center
05:20PM 30.1742 -95.7975 278° West 421 484 43,000  Level Houston Center
05:21PM 30.1911 -95.9317 278° West 421 484 43,000  Level Houston Center
05:22PM 30.2067 -96.0694 277° West 424 488 43,000  Level Houston Center
05:23PM 30.2231 -96.2044 278° West 421 484 43,000  Level Houston Center
05:25PM 30.2586 -96.4978 278° West 421 484 43,000  Level Houston Center
05:26PM 30.2744 -96.6333 278° West 420 483 43,000  Level Houston Center
05:27PM 30.2892 -96.7697 277° West 423 487 43,000  Level Houston Center
05:28PM 30.3072 -96.9042 279° West 421 484 43,000  Level Houston Center
05:29PM 30.3214 -97.0406 277° West 421 484 43,000  Level Houston Center
05:30PM 30.3381 -97.1758 278° West 421 484 43,000  Level Houston Center
05:31PM 30.3536 -97.3114 278° West 419 482 43,000  Level Houston Center
05:32PM 30.3714 -97.4706 277° West 421 484 43,000  Level Houston Center
05:33PM 30.4333 -97.5903 301° West 444 511 43,000  Level Houston Center
05:34PM 30.5289 -97.6931 317° Northwest 459 528 43,000  Level Houston Center
05:35PM 30.6247 -97.7972 317° Northwest 462 532 43,000  Level Houston Center
05:36PM 30.7203 -97.9008 317° Northwest 464 534 43,000  Level Houston Center
05:37PM 30.8169 -98.0056 317° Northwest 466 536 43,000  Level Houston Center
05:38PM 30.9133 -98.1106 317° Northwest 468 539 43,000  Level Houston Center
05:39PM 31.0092 -98.2164 317° Northwest 469 540 43,000  Level Houston Center
05:40PM 31.1233 -98.3400 317° Northwest 473 544 43,000  Level Houston Center
05:41PM 31.2200 -98.4469 317° Northwest 472 543 43,000  Level Houston Center
05:42PM 31.3178 -98.5547 317° Northwest 475 547 43,000  Level Houston Center
05:43PM 31.4153 -98.6606 317° Northwest 473 544 43,000  Level Houston Center
05:44PM 31.5147 -98.7781 315° West 469 540 43,000  Level Fort Worth Center
05:45PM 31.6097 -98.8842 316° Northwest 480 552 43,000  Level Fort Worth Center
05:46PM 31.6942 -98.9736 318° Northwest 464 534 43,000  Level Fort Worth Center
05:47PM 31.7867 -99.0803 316° Northwest 464 534 43,000  Level Fort Worth Center
05:48PM 31.8794 -99.1822 317° Northwest 458 527 43,000  Level Fort Worth Center
05:49PM 31.9739 -99.2869 317° Northwest 458 527 43,000  Level Fort Worth Center
05:50PM 32.0661 -99.3942 315° West 458 527 43,000  Level Fort Worth Center
05:51PM 32.1647 -99.5019 317° Northwest 463 533 43,000  Level Fort Worth Center
05:52PM 32.2589 -99.6097 316° Northwest 475 547 43,000  Level Fort Worth Center
05:53PM 32.3528 -99.7178 316° Northwest 475 547 43,000  Level Fort Worth Center
05:54PM 32.4469 -99.8283 315° West 475 547 43,000  Level Fort Worth Center
05:55PM 32.5192 -99.9733 301° West 462 532 43,000  Level Fort Worth Center
05:56PM 32.5725 -100.1103 295° West 462 532 43,000  Level Fort Worth Center
05:57PM 32.6239 -100.2475 294° West 462 532 43,000  Level Fort Worth Center
05:58PM 32.6769 -100.3875 294° West 462 532 43,000  Level Fort Worth Center
05:59PM 32.7300 -100.5250 295° West 462 532 43,000  Level Fort Worth Center
06:00PM 32.7828 -100.6678 294° West 462 532 43,000  Level Fort Worth Center
06:01PM 32.8356 -100.8056 295° West 462 532 43,000  Level Fort Worth Center
06:02PM 32.8878 -100.9486 294° West 462 532 43,000  Level Fort Worth Center
06:03PM 32.9400 -101.0917 294° West 462 532 43,000  Level Fort Worth Center
06:04PM 32.9864 -101.2175 294° West 462 532 43,000  Level Fort Worth Center
06:05PM 33.0483 -101.3736 295° West 467 537 43,000  Level Fort Worth Center
06:06PM 33.0922 -101.5069 291° West 475 547 43,000  Level Fort Worth Center
06:07PM 33.1494 -101.6658 293° West 481 554 43,000  Level Fort Worth Center
06:08PM 33.1950 -101.7972 293° West 481 554 43,000  Level Fort Worth Center
06:09PM 33.2539 -101.9567 294° West 481 554 43,000  Level Fort Worth Center
06:10PM 33.3014 -102.0883 293° West 480 552 43,000  Level Fort Worth Center
06:11PM 33.3578 -102.2503 293° West 480 552 43,000  Level Fort Worth Center
06:12PM 33.4064 -102.3925 292° West 480 552 43,000  Level Fort Worth Center
06:13PM 33.4628 -102.5450 294° West 480 552 43,000  Level Fort Worth Center
06:16PM 33.5711 -102.8483 293° West 478 550 43,000  Level Albuquerque Center
06:17PM 33.6214 -102.9933 293° West 474 545 43,000  Level Albuquerque Center
06:18PM 33.6817 -103.1714 292° West 479 551 43,000  Level Albuquerque Center
06:19PM 33.7314 -103.3183 292° West 478 550 43,000  Level Albuquerque Center
06:20PM 33.7831 -103.4644 293° West 477 549 43,000  Level Albuquerque Center
06:21PM 33.8328 -103.6122 292° West 478 550 43,000  Level Albuquerque Center
06:22PM 33.8908 -103.7828 292° West 488 562 43,000  Level Albuquerque Center
06:23PM 33.9403 -103.9300 292° West 480 552 43,000  Level Albuquerque Center
06:24PM 33.9944 -104.0922 292° West 484 557 43,000  Level Albuquerque Center
06:25PM 34.0436 -104.2389 292° West 480 552 43,000  Level Albuquerque Center
06:26PM 34.0956 -104.3925 292° West 485 558 43,000  Level Albuquerque Center
06:27PM 34.1453 -104.5450 292° West 484 557 43,000  Level Albuquerque Center
06:28PM 34.1958 -104.6939 292° West 477 549 43,000  Level Albuquerque Center
06:29PM 34.2444 -104.8450 291° West 477 549 43,000  Level Albuquerque Center
06:30PM 34.3022 -105.0197 292° West 475 547 43,000  Level Albuquerque Center
06:31PM 34.3506 -105.1692 291° West 473 544 43,000  Level Albuquerque Center
06:32PM 34.3997 -105.3211 291° West 477 549 43,000  Level Albuquerque Center
06:33PM 34.4489 -105.4725 292° West 478 550 43,000  Level Albuquerque Center
06:34PM 34.4975 -105.6247 291° West 479 551 43,000  Level Albuquerque Center
06:35PM 34.5464 -105.7764 291° West 478 550 43,000  Level Albuquerque Center
06:36PM 34.5936 -105.9292 291° West 478 550 43,000  Level Albuquerque Center
06:37PM 34.6414 -106.0803 291° West 476 548 43,000  Level Albuquerque Center
06:39PM 34.6847 -106.2417 291° West  Level FlightAware Approximate
06:39PM 34.7411 -106.3992 291° West 479 551 43,000  Level Albuquerque Center
06:40PM 34.7878 -106.5519 290° West 479 551 43,000  Level Albuquerque Center
06:41PM 34.8311 -106.7069 289° West 481 554 43,000  Level Albuquerque Center
06:43PM 34.8597 -106.8897 281° West 484 557 43,000  Level Albuquerque Center
06:44PM 34.8814 -107.0431 280° West 480 552 43,000  Level Albuquerque Center
06:45PM 34.9039 -107.1972 280° West 485 558 43,000  Level Albuquerque Center
06:46PM 34.9242 -107.3633 279° West 492 566 43,000  Level Albuquerque Center
06:47PM 34.9472 -107.5250 280° West 486 559 43,000  Level Albuquerque Center
06:48PM 34.9736 -107.7219 279° West 489 563 43,000  Level Albuquerque Center
06:49PM 34.9956 -107.8783 280° West 491 565 43,000  Level Albuquerque Center
06:50PM 35.0206 -108.0619 279° West 491 565 43,000  Level Albuquerque Center
06:51PM 35.0417 -108.2208 279° West 493 567 43,000  Level Albuquerque Center
06:52PM 35.0661 -108.4044 279° West 491 565 43,000  Level Albuquerque Center
06:53PM 35.0867 -108.5608 279° West 489 563 43,000  Level Albuquerque Center
06:54PM 35.1072 -108.7192 279° West 490 564 43,000  Level Albuquerque Center
06:55PM 35.1306 -108.9042 279° West 491 565 43,000  Level Albuquerque Center
06:56PM 35.1508 -109.0617 279° West 490 564 43,000  Level Albuquerque Center
06:57PM 35.1736 -109.2489 279° West 494 568 43,000  Level Albuquerque Center
06:58PM 35.1947 -109.4086 279° West 496 571 43,000  Level Albuquerque Center
06:59PM 35.2161 -109.5919 278° West 490 564 43,000  Level Albuquerque Center
07:00PM 35.2347 -109.7511 278° West 491 565 43,000  Level Albuquerque Center
07:01PM 35.2550 -109.9078 279° West 489 563 43,000  Level Albuquerque Center
07:02PM 35.2753 -110.0894 278° West 485 558 43,000  Level Albuquerque Center
07:03PM 35.2908 -110.2458 277° West 484 557 43,000  Level Albuquerque Center
07:04PM 35.3119 -110.4233 278° West 477 549 43,000 -600 Level Albuquerque Center
07:05PM 35.3181 -110.5644 273° West 452 520 41,800 -1,500 Descending Albuquerque Center
07:06PM 35.2531 -110.7158 242° Southwest 449 517 40,000 -900 Descending Albuquerque Center
07:07PM 35.1997 -110.8458 243° Southwest 445 512 40,000  Level Albuquerque Center
07:08PM 35.1339 -111.0025 243° Southwest 459 528 40,000  Level Albuquerque Center
07:09PM 35.0858 -111.1300 245° Southwest 478 550 40,000  Level Albuquerque Center
07:10PM 35.0272 -111.2697 243° Southwest 471 542 40,000  Level Albuquerque Center
07:11PM 34.9575 -111.4353 243° Southwest 461 531 40,000 -300 Level Albuquerque Center
07:12PM 34.9581 -111.5756 270° West 419 482 39,500 -1,500 Descending Albuquerque Center
07:13PM 34.9997 -111.6936 293° West 386 444 37,000 -2,940 Descending Albuquerque Center
07:14PM 35.0397 -111.8078 293° West 387 445 33,500 -3,420 Descending Albuquerque Center
07:15PM 35.0931 -111.9622 293° West 407 468 30,000 -1,680 Descending Albuquerque Center
07:17PM 35.1381 -112.0936 293° West 416 479 30,000  Level Albuquerque Center
07:18PM 35.1842 -112.2272 293° West 426 490 30,000  Level Albuquerque Center
07:19PM 35.2297 -112.3603 293° West 427 491 30,000  Level Albuquerque Center
07:20PM 35.2747 -112.4903 293° West 421 484 30,000  Level Albuquerque Center
07:21PM 35.3186 -112.6208 292° West 418 481 30,000  Level Albuquerque Center
07:22PM 35.3650 -112.7586 292° West 417 480 30,000 -60 Level Albuquerque Center
07:23PM 35.4053 -112.8886 291° West 413 475 29,900 -1,020 Descending Albuquerque Center
07:24PM 35.4419 -112.9903 294° West 359 413 28,100 -2,820 Descending Los Angeles Center
07:25PM 35.4850 -113.1206 292° West 344 396 24,600 -2,220 Descending Los Angeles Center
07:26PM 35.5217 -113.2311 292° West 348 400 23,600 -1,380 Descending Los Angeles Center
07:27PM 35.5439 -113.3353 285° West 347 399 21,800 -1,680 Descending Los Angeles Center
07:28PM 35.5653 -113.4478 283° West 341 392 20,200 -1,440 Descending Los Angeles Center
07:29PM 35.5914 -113.5847 283° West 344 396 18,900 -1,140 Descending Los Angeles Center
07:30PM 35.6136 -113.6992 283° West 346 398 17,900 -960 Descending Los Angeles Center
07:31PM 35.6342 -113.8075 283° West 328 377 17,000 -900 Descending Los Angeles Center
07:32PM 35.6539 -113.9111 283° West 316 364 16,100 -960 Descending Los Angeles Center
07:33PM 35.6744 -114.0164 284° West 317 365 15,100 -1,020 Descending Los Angeles Center
07:34PM 35.6997 -114.1481 283° West 327 376 14,000 -1,080 Descending Los Angeles Center
07:34PM 35.7108 -114.1956 286° West 336 387 13,600 -900 Descending Los Angeles Center
07:35PM 35.7183 -114.2525 279° West 332 382 13,100 -1,320 Descending Los Angeles Center
07:36PM 35.7300 -114.3272 281° West 316 364 12,000 -900 Descending Los Angeles Center
07:36PM 35.7314 -114.3553 273° West 312 359 12,000  Level Los Angeles Center
07:37PM 35.7378 -114.4200 277° West 299 344 12,000 -480 Level Los Angeles Center
07:37PM 35.7433 -114.4972 275° West 299 344 11,500 -840 Descending Los Angeles Center
07:38PM 35.7478 -114.5228 282° West 300 345 11,200 -540 Descending Los Angeles Center
07:38PM 35.7525 -114.6017 274° West 304 350 11,000 -240 Descending Los Angeles Center
07:39PM 35.7561 -114.6369 277° West 307 353 11,000  Level Los Angeles Center
07:39PM 35.7464 -114.7025 260° West 300 345 11,000  Level Los Angeles Center
07:40PM 35.7133 -114.8033 248° West 309 356 11,000  Level Los Angeles Center
07:41PM 35.6803 -114.9025 248° West 312 359 11,000 -840 Level Los Angeles Center
07:42PM 35.6494 -114.9978 248° West 307 353 9,300 -1,560 Descending Los Angeles Center
07:43PM 35.6431 -115.0350 258° West 301 346 9,000 -300 Descending Los Angeles Center
07:43PM 35.6494 -115.0881 278° West 286 329 9,000  Level Los Angeles Center
07:45PM 35.6614 -115.1911 278° West 263 303 9,000  Level Los Angeles Center
07:46PM 35.6728 -115.2692 280° West 248 285 9,000 -360 Level Los Angeles Center
07:47PM 35.7111 -115.3278 309° West 228 262 8,300 -480 Descending Los Angeles Center
07:48PM 35.7625 -115.3497 341° North 227 261 8,000 -180 Descending Los Angeles Center
07:49PM 35.8192 -115.3153 26° Northeast 230 265 8,000 -540 Level Los Angeles Center
07:50PM 35.8772 -115.2825 25° Northeast 229 264 6,900 -1,440 Descending Los Angeles Center
07:51PM 35.9483 -115.2422 25° Northeast 232 267 5,100 -1,260 Descending Los Angeles Center
07:52PM 35.9972 -115.2136 25° Northeast 231 266 4,400 -1,140 Descending Los Angeles Center
07:53PM 36.0514 -115.1842 24° Northeast 154 177 2,800 -780 Descending Los Angeles Center
07:54PM 35.8931 -115.2217 191° South 830 955 2,800  Level Los Angeles Center